Time;durP1;ratioP1;P1;durP2;ratioP2;P2;SDS_P1;SDS_P2;PMS_P1;PMS_P2;Temp;Humidity;BMP_temperature;BMP_pressure;BME280_temperature;BME280_humidity;BME280_pressure;Samples;Min_cycle;Max_cycle;Signal;HPM_P1;HPM_P2
2023/04/04 00:02:20;;;;;;;4.18;1.50;;;;;;;;;;5039044;28;20403;-69
2023/04/04 00:04:47;;;;;;;5.07;2.10;;;;;;;;;;5057864;28;20076;-69
2023/04/04 00:07:13;;;;;;;4.57;1.85;;;;;;;;;;5058562;28;20076;-69
2023/04/04 00:09:39;;;;;;;5.57;2.35;;;;;;;;;;5040294;28;20115;-69
2023/04/04 00:12:05;;;;;;;4.43;1.85;;;;;;;;;;5055589;28;20048;-69
2023/04/04 00:14:32;;;;;;;8.48;1.83;;;;;;;;;;5040809;28;20488;-69
2023/04/04 00:16:58;;;;;;;6.07;1.80;;;;;;;;;;5058493;28;20041;-69
2023/04/04 00:19:24;;;;;;;6.43;1.73;;;;;;;;;;5057520;28;20052;-69
2023/04/04 00:21:50;;;;;;;5.07;2.30;;;;;;;;;;5058811;28;20127;-69
2023/04/04 00:24:17;;;;;;;4.70;1.90;;;;;;;;;;5058121;28;20063;-69
2023/04/04 00:26:43;;;;;;;9.13;2.55;;;;;;;;;;5059528;28;20452;-69
2023/04/04 00:29:09;;;;;;;4.43;1.98;;;;;;;;;;5060707;28;20469;-69
2023/04/04 00:31:35;;;;;;;5.47;2.20;;;;;;;;;;5054244;28;20044;-69
2023/04/04 00:34:01;;;;;;;4.60;2.08;;;;;;;;;;5051914;28;20045;-69
2023/04/04 00:36:27;;;;;;;6.47;2.13;;;;;;;;;;5052159;28;20504;-69
2023/04/04 00:38:54;;;;;;;5.13;2.08;;;;;;;;;;5034209;28;20045;-69
2023/04/04 00:41:20;;;;;;;4.82;2.13;;;;;;;;;;5014106;28;20045;-69
2023/04/04 00:43:46;;;;;;;4.05;2.10;;;;;;;;;;5048168;28;20287;-69
2023/04/04 00:46:14;;;;;;;4.55;1.70;;;;;;;;;;5049974;28;20408;-69
2023/04/04 00:48:41;;;;;;;6.47;1.77;;;;;;;;;;5050156;28;20036;-69
2023/04/04 00:51:07;;;;;;;7.10;1.92;;;;;;;;;;5034558;28;20087;-69
2023/04/04 00:53:33;;;;;;;6.03;2.00;;;;;;;;;;5054234;28;20100;-69
2023/04/04 00:55:59;;;;;;;4.63;1.90;;;;;;;;;;5058809;28;20045;-69
2023/04/04 00:58:26;;;;;;;5.85;1.75;;;;;;;;;;5060301;28;20036;-69
2023/04/04 01:00:52;;;;;;;3.88;1.80;;;;;;;;;;5055681;28;20397;-69
2023/04/04 01:03:19;;;;;;;5.05;2.13;;;;;;;;;;5058752;28;20116;-69
2023/04/04 01:05:45;;;;;;;7.53;1.77;;;;;;;;;;5056751;28;20037;-69
2023/04/04 01:08:11;;;;;;;4.38;1.90;;;;;;;;;;5056689;28;20048;-69
2023/04/04 01:10:38;;;;;;;6.10;1.80;;;;;;;;;;5057465;28;20033;-69
2023/04/04 01:13:05;;;;;;;6.32;1.70;;;;;;;;;;5039114;28;20067;-69
2023/04/04 01:15:31;;;;;;;7.70;2.30;;;;;;;;;;5055184;28;20045;-69
2023/04/04 01:17:59;;;;;;;4.63;2.00;;;;;;;;;;5031744;28;20061;-69
2023/04/04 01:20:26;;;;;;;4.95;2.00;;;;;;;;;;5035398;28;22504;-69
2023/04/04 01:22:53;;;;;;;6.32;1.73;;;;;;;;;;5048941;28;20064;-69
2023/04/04 01:25:25;;;;;;;4.00;1.60;;;;;;;;;;5051527;28;20069;-69
2023/04/04 01:27:52;;;;;;;6.15;2.65;;;;;;;;;;5053275;28;20279;-69
2023/04/04 01:30:18;;;;;;;6.93;2.10;;;;;;;;;;5053211;28;20132;-69
2023/04/04 01:32:51;;;;;;;4.68;2.05;;;;;;;;;;5037557;28;20044;-69
2023/04/04 01:35:36;;;;;;;7.10;2.42;;;;;;;;;;5042247;28;20357;-69
2023/04/04 01:38:03;;;;;;;6.38;2.28;;;;;;;;;;5058965;28;20051;-69
2023/04/04 01:40:34;;;;;;;4.05;2.05;;;;;;;;;;5058845;28;20044;-69
2023/04/04 01:43:00;;;;;;;6.22;2.70;;;;;;;;;;5056980;28;20548;-69
2023/04/04 01:45:28;;;;;;;8.80;2.30;;;;;;;;;;5053521;28;20104;-69
2023/04/04 01:47:55;;;;;;;6.78;2.10;;;;;;;;;;5054103;28;20049;-69
2023/04/04 01:50:22;;;;;;;8.02;2.50;;;;;;;;;;5053483;28;20056;-69
2023/04/04 01:52:48;;;;;;;11.05;3.22;;;;;;;;;;5037792;28;20096;-69
2023/04/04 01:55:15;;;;;;;7.53;2.70;;;;;;;;;;5056944;28;20036;-69
2023/04/04 01:57:41;;;;;;;7.43;2.30;;;;;;;;;;5057844;28;20041;-69
2023/04/04 02:00:08;;;;;;;6.03;2.30;;;;;;;;;;5062346;28;20375;-69
2023/04/04 02:02:34;;;;;;;7.90;2.30;;;;;;;;;;5035863;28;20044;-69
2023/04/04 02:05:00;;;;;;;8.40;2.60;;;;;;;;;;5053309;28;20052;-69
2023/04/04 02:07:27;;;;;;;7.43;2.70;;;;;;;;;;5056702;28;20060;-69
2023/04/04 02:09:53;;;;;;;5.32;2.67;;;;;;;;;;5056292;28;20065;-69
2023/04/04 02:12:19;;;;;;;8.77;2.95;;;;;;;;;;5052295;28;20043;-69
2023/04/04 02:14:45;;;;;;;10.43;3.08;;;;;;;;;;5054950;28;20515;-68
2023/04/04 02:17:11;;;;;;;6.40;3.03;;;;;;;;;;5057998;28;20110;-68
2023/04/04 02:19:38;;;;;;;5.97;2.70;;;;;;;;;;5042036;28;20508;-68
2023/04/04 02:22:04;;;;;;;9.65;3.17;;;;;;;;;;5040127;28;20094;-68
2023/04/04 02:24:31;;;;;;;5.90;3.03;;;;;;;;;;5051349;28;20056;-69
2023/04/04 02:26:57;;;;;;;7.03;2.90;;;;;;;;;;5048201;28;20499;-69
2023/04/04 02:29:23;;;;;;;7.82;3.83;;;;;;;;;;5055159;28;20040;-68
2023/04/04 02:31:49;;;;;;;9.50;3.80;;;;;;;;;;5039267;28;21714;-69
2023/04/04 02:34:15;;;;;;;10.13;4.72;;;;;;;;;;5039706;28;21748;-69
2023/04/04 02:36:41;;;;;;;11.60;3.75;;;;;;;;;;5036864;28;20040;-69
2023/04/04 02:39:08;;;;;;;12.45;4.32;;;;;;;;;;5058422;28;20106;-69
2023/04/04 02:41:34;;;;;;;10.50;3.80;;;;;;;;;;5060928;28;20048;-69
2023/04/04 02:44:00;;;;;;;10.55;3.95;;;;;;;;;;5042268;28;20045;-69
2023/04/04 02:46:26;;;;;;;18.05;4.50;;;;;;;;;;5036980;28;20460;-69
2023/04/04 02:48:52;;;;;;;8.73;3.75;;;;;;;;;;5057533;28;20043;-68
2023/04/04 02:51:18;;;;;;;8.18;3.63;;;;;;;;;;5039240;28;21715;-69
2023/04/04 02:53:45;;;;;;;10.13;4.07;;;;;;;;;;5050529;28;20484;-69
2023/04/04 02:56:12;;;;;;;6.60;3.45;;;;;;;;;;5056911;28;20316;-68
2023/04/04 02:58:38;;;;;;;12.60;3.67;;;;;;;;;;5058751;28;20064;-68
2023/04/04 03:01:04;;;;;;;7.53;3.53;;;;;;;;;;5055426;28;20432;-69
2023/04/04 03:03:30;;;;;;;8.80;4.20;;;;;;;;;;5056761;28;20123;-69
2023/04/04 03:05:58;;;;;;;14.02;4.47;;;;;;;;;;5037677;28;20550;-68
2023/04/04 03:08:25;;;;;;;10.15;3.53;;;;;;;;;;5040631;28;20101;-68
2023/04/04 03:10:51;;;;;;;8.07;3.75;;;;;;;;;;5053752;28;20562;-68
2023/04/04 03:13:17;;;;;;;6.60;3.50;;;;;;;;;;5052610;28;20037;-68
2023/04/04 03:15:43;;;;;;;9.50;3.55;;;;;;;;;;5059159;28;20089;-69
2023/04/04 03:18:09;;;;;;;10.55;4.55;;;;;;;;;;5051987;28;20503;-69
2023/04/04 03:20:36;;;;;;;10.60;4.53;;;;;;;;;;5019320;28;20137;-69
2023/04/04 03:23:02;;;;;;;8.13;3.75;;;;;;;;;;5051113;28;20102;-69
2023/04/04 03:25:28;;;;;;;10.73;4.05;;;;;;;;;;5056614;28;20443;-70
2023/04/04 03:27:54;;;;;;;7.75;3.58;;;;;;;;;;5038475;28;20877;-69
2023/04/04 03:30:20;;;;;;;10.40;4.00;;;;;;;;;;5056235;28;20470;-69
2023/04/04 03:32:47;;;;;;;13.00;5.50;;;;;;;;;;5038824;28;20079;-69
2023/04/04 03:35:13;;;;;;;11.32;4.40;;;;;;;;;;5053447;28;20385;-69
2023/04/04 03:37:39;;;;;;;12.18;4.35;;;;;;;;;;5052800;28;20411;-69
2023/04/04 03:40:06;;;;;;;12.15;4.35;;;;;;;;;;5059757;28;20046;-69
2023/04/04 03:42:33;;;;;;;11.85;4.32;;;;;;;;;;5034848;28;20134;-69
2023/04/04 03:44:59;;;;;;;17.13;4.40;;;;;;;;;;5054871;28;20045;-69
2023/04/04 03:47:25;;;;;;;10.48;3.63;;;;;;;;;;5056054;28;20048;-68
2023/04/04 03:49:52;;;;;;;9.20;4.35;;;;;;;;;;5059521;28;20080;-69
2023/04/04 03:52:18;;;;;;;8.32;3.80;;;;;;;;;;5053074;28;20071;-68
2023/04/04 03:54:45;;;;;;;10.35;4.13;;;;;;;;;;5035185;28;20044;-68
2023/04/04 03:57:11;;;;;;;8.18;4.25;;;;;;;;;;5039946;28;20530;-69
2023/04/04 03:59:37;;;;;;;10.98;5.05;;;;;;;;;;5051489;28;20052;-68
2023/04/04 04:02:04;;;;;;;11.50;4.30;;;;;;;;;;5035966;28;20048;-68
2023/04/04 04:04:30;;;;;;;10.27;4.70;;;;;;;;;;5049161;28;20106;-69
2023/04/04 04:06:56;;;;;;;9.45;4.28;;;;;;;;;;5050979;28;20141;-68
2023/04/04 04:09:22;;;;;;;9.02;3.85;;;;;;;;;;5053628;28;20062;-69
2023/04/04 04:11:48;;;;;;;9.00;4.00;;;;;;;;;;5056388;28;20052;-68
2023/04/04 04:14:15;;;;;;;12.35;4.63;;;;;;;;;;5040408;28;20475;-69
2023/04/04 04:16:41;;;;;;;10.70;4.78;;;;;;;;;;5057030;28;20092;-69
2023/04/04 04:19:07;;;;;;;10.35;5.00;;;;;;;;;;5034333;28;20057;-68
2023/04/04 04:21:33;;;;;;;9.60;4.10;;;;;;;;;;5030211;28;20079;-69
2023/04/04 04:23:59;;;;;;;9.65;4.20;;;;;;;;;;5011784;28;20050;-69
2023/04/04 04:26:26;;;;;;;13.35;3.80;;;;;;;;;;5030865;28;20052;-69
2023/04/04 04:28:52;;;;;;;8.00;4.30;;;;;;;;;;5027894;28;20576;-69
2023/04/04 04:31:18;;;;;;;17.23;5.00;;;;;;;;;;5026948;28;20069;-68
2023/04/04 04:33:44;;;;;;;14.93;4.20;;;;;;;;;;5029859;28;20049;-69
2023/04/04 04:36:10;;;;;;;10.10;4.45;;;;;;;;;;5032942;28;20041;-68
2023/04/04 04:38:37;;;;;;;8.80;4.68;;;;;;;;;;5036357;28;20119;-68
2023/04/04 04:41:04;;;;;;;10.63;4.93;;;;;;;;;;5034665;28;20128;-69
2023/04/04 04:43:30;;;;;;;9.52;4.40;;;;;;;;;;5032930;28;20063;-68
2023/04/04 04:45:56;;;;;;;14.25;5.10;;;;;;;;;;5029995;28;20049;-68
2023/04/04 04:48:22;;;;;;;10.57;5.22;;;;;;;;;;5031353;28;20049;-67
2023/04/04 04:50:50;;;;;;;11.70;4.75;;;;;;;;;;5034478;28;20554;-67
2023/04/04 04:53:16;;;;;;;12.68;5.13;;;;;;;;;;5035482;28;20052;-64
2023/04/04 04:55:42;;;;;;;11.35;4.22;;;;;;;;;;5036690;28;20045;-69
2023/04/04 04:58:09;;;;;;;13.23;4.47;;;;;;;;;;5031804;28;20056;-68
2023/04/04 05:00:36;;;;;;;15.88;5.97;;;;;;;;;;5032811;28;20053;-68
2023/04/04 05:03:05;;;;;;;10.60;4.40;;;;;;;;;;5038260;28;20049;-68
2023/04/04 05:05:33;;;;;;;13.00;4.43;;;;;;;;;;5039155;28;20049;-68
2023/04/04 05:08:01;;;;;;;9.68;3.92;;;;;;;;;;5037123;28;20041;-69
2023/04/04 05:10:27;;;;;;;9.55;4.43;;;;;;;;;;5039518;28;20059;-68
2023/04/04 05:12:53;;;;;;;8.13;4.43;;;;;;;;;;5040084;28;20171;-68
2023/04/04 05:15:20;;;;;;;10.10;4.43;;;;;;;;;;5037511;28;20114;-68
2023/04/04 05:17:47;;;;;;;9.73;5.00;;;;;;;;;;5042609;28;20051;-68
2023/04/04 05:20:13;;;;;;;10.18;4.55;;;;;;;;;;5057072;28;20048;-68
2023/04/04 05:22:43;;;;;;;8.20;4.10;;;;;;;;;;5041606;28;20135;-68
2023/04/04 05:25:10;;;;;;;8.93;4.43;;;;;;;;;;5060250;28;20106;-68
2023/04/04 05:27:36;;;;;;;7.47;4.00;;;;;;;;;;5053352;28;20377;-68
2023/04/04 05:30:02;;;;;;;12.98;4.00;;;;;;;;;;5035320;28;20064;-68
2023/04/04 05:32:28;;;;;;;9.60;3.97;;;;;;;;;;5034953;28;20063;-68
2023/04/04 05:34:54;;;;;;;11.43;4.63;;;;;;;;;;5052710;28;20768;-69
2023/04/04 05:37:21;;;;;;;10.38;4.20;;;;;;;;;;5057792;28;20046;-67
2023/04/04 05:39:47;;;;;;;9.48;4.85;;;;;;;;;;5058607;28;20040;-67
2023/04/04 05:42:14;;;;;;;15.60;4.68;;;;;;;;;;5062529;28;20044;-66
2023/04/04 05:44:40;;;;;;;13.75;4.35;;;;;;;;;;5042127;28;20427;-66
2023/04/04 05:47:06;;;;;;;12.80;4.97;;;;;;;;;;5061654;28;20453;-66
2023/04/04 05:49:32;;;;;;;10.45;4.47;;;;;;;;;;5055490;28;20052;-66
2023/04/04 05:51:58;;;;;;;11.25;4.28;;;;;;;;;;5041632;28;20048;-66
2023/04/04 05:54:25;;;;;;;9.93;4.78;;;;;;;;;;5056228;28;20044;-66
2023/04/04 05:56:51;;;;;;;15.05;5.43;;;;;;;;;;5056002;28;20037;-66
2023/04/04 05:59:17;;;;;;;18.40;5.72;;;;;;;;;;5061393;28;20048;-66
2023/04/04 06:01:43;;;;;;;16.23;5.38;;;;;;;;;;5060087;28;20411;-66
2023/04/04 06:04:10;;;;;;;15.95;5.80;;;;;;;;;;5060615;28;20045;-67
2023/04/04 06:06:36;;;;;;;13.32;6.28;;;;;;;;;;5072768;28;20443;-66
2023/04/04 06:09:02;;;;;;;18.30;5.30;;;;;;;;;;5061066;28;20056;-66
2023/04/04 06:11:29;;;;;;;14.93;5.70;;;;;;;;;;5059416;28;20394;-67
2023/04/04 06:13:55;;;;;;;12.60;5.40;;;;;;;;;;5065731;28;20381;-66
2023/04/04 06:16:21;;;;;;;33.42;6.00;;;;;;;;;;5048129;28;20128;-66
2023/04/04 06:18:47;;;;;;;15.45;4.90;;;;;;;;;;5060091;28;20044;-66
2023/04/04 06:21:14;;;;;;;10.57;4.28;;;;;;;;;;5064083;28;20463;-66
2023/04/04 06:23:40;;;;;;;19.70;6.10;;;;;;;;;;5065031;28;20540;-66
2023/04/04 06:26:07;;;;;;;13.10;4.32;;;;;;;;;;5063688;28;20048;-66
2023/04/04 06:28:33;;;;;;;11.02;4.93;;;;;;;;;;5066603;28;20048;-66
2023/04/04 06:31:00;;;;;;;10.68;4.53;;;;;;;;;;5063641;28;20484;-66
2023/04/04 06:33:26;;;;;;;13.00;4.75;;;;;;;;;;5041070;28;20041;-66
2023/04/04 06:35:52;;;;;;;11.90;4.95;;;;;;;;;;5044040;28;20117;-66
2023/04/04 06:38:18;;;;;;;12.35;4.45;;;;;;;;;;5045766;28;20147;-67
2023/04/04 06:40:45;;;;;;;13.60;4.80;;;;;;;;;;5064009;28;20037;-66
2023/04/04 06:43:11;;;;;;;10.45;4.30;;;;;;;;;;5048200;28;20135;-66
2023/04/04 06:45:37;;;;;;;13.63;4.38;;;;;;;;;;5065656;28;20041;-66
2023/04/04 06:48:04;;;;;;;9.75;4.10;;;;;;;;;;5063597;28;20054;-66
2023/04/04 06:50:31;;;;;;;10.90;4.38;;;;;;;;;;5066220;28;20155;-66
2023/04/04 06:52:59;;;;;;;13.02;3.92;;;;;;;;;;5061257;28;20040;-66
2023/04/04 06:55:27;;;;;;;8.88;4.10;;;;;;;;;;5059251;28;20467;-66
2023/04/04 06:57:53;;;;;;;10.25;3.88;;;;;;;;;;5064511;28;20044;-66
2023/04/04 07:00:20;;;;;;;14.20;3.92;;;;;;;;;;5062715;28;20048;-66
2023/04/04 07:02:46;;;;;;;8.02;3.75;;;;;;;;;;5046744;28;20411;-66
2023/04/04 07:05:13;;;;;;;7.15;3.38;;;;;;;;;;5049269;28;20048;-66
2023/04/04 07:07:39;;;;;;;7.95;3.67;;;;;;;;;;5061926;28;20532;-65
2023/04/04 07:10:06;;;;;;;10.65;4.20;;;;;;;;;;5023469;28;20442;-65
2023/04/04 07:12:32;;;;;;;12.43;5.68;;;;;;;;;;5063262;28;20044;-69
2023/04/04 07:14:58;;;;;;;9.65;5.25;;;;;;;;;;5052365;28;20045;-64
2023/04/04 07:17:24;;;;;;;12.70;4.57;;;;;;;;;;5069854;28;20076;-64
2023/04/04 07:19:51;;;;;;;10.82;3.40;;;;;;;;;;5068977;28;20111;-64
2023/04/04 07:22:17;;;;;;;9.25;3.75;;;;;;;;;;5043631;28;20049;-64
2023/04/04 07:24:43;;;;;;;6.28;3.70;;;;;;;;;;5064557;28;20037;-64
2023/04/04 07:27:10;;;;;;;7.97;3.50;;;;;;;;;;5045569;28;20506;-66
2023/04/04 07:29:36;;;;;;;8.20;3.33;;;;;;;;;;5044463;28;20452;-67
2023/04/04 07:32:02;;;;;;;10.88;3.67;;;;;;;;;;5065335;28;20049;-67
2023/04/04 07:34:28;;;;;;;9.13;3.78;;;;;;;;;;5065419;28;20991;-67
2023/04/04 07:36:55;;;;;;;15.18;6.55;;;;;;;;;;5064415;28;20119;-67
2023/04/04 07:39:21;;;;;;;13.20;5.75;;;;;;;;;;5061759;28;20040;-67
2023/04/04 07:41:47;;;;;;;14.82;8.60;;;;;;;;;;5059978;28;20492;-67
2023/04/04 07:44:13;;;;;;;12.80;7.28;;;;;;;;;;5063989;28;20459;-75
2023/04/04 07:46:39;;;;;;;11.90;7.35;;;;;;;;;;5027915;28;20106;-66
2023/04/04 07:49:06;;;;;;;15.65;7.85;;;;;;;;;;5060768;28;20391;-67
2023/04/04 07:51:34;;;;;;;8.55;4.47;;;;;;;;;;5054617;28;20041;-67
2023/04/04 07:54:01;;;;;;;7.25;3.42;;;;;;;;;;5064715;28;20041;-67
2023/04/04 07:56:27;;;;;;;7.95;3.35;;;;;;;;;;5044646;28;20044;-67
2023/04/04 07:58:53;;;;;;;9.52;3.50;;;;;;;;;;5066954;28;20098;-68
2023/04/04 08:01:20;;;;;;;7.13;2.97;;;;;;;;;;5044043;28;20495;-67
2023/04/04 08:03:46;;;;;;;9.93;3.95;;;;;;;;;;5041808;28;20438;-68
2023/04/04 08:06:12;;;;;;;8.52;3.38;;;;;;;;;;5056444;28;20057;-67
2023/04/04 08:08:40;;;;;;;8.55;3.28;;;;;;;;;;5060613;28;20044;-68
2023/04/04 08:11:06;;;;;;;7.65;3.05;;;;;;;;;;5063130;28;20050;-68
2023/04/04 08:13:32;;;;;;;6.63;2.75;;;;;;;;;;5042263;28;20190;-67
2023/04/04 08:15:58;;;;;;;8.73;3.75;;;;;;;;;;5058121;28;20045;-67
2023/04/04 08:18:26;;;;;;;8.52;2.88;;;;;;;;;;5061957;28;20055;-67
2023/04/04 08:20:52;;;;;;;8.15;2.50;;;;;;;;;;5060524;28;20048;-67
2023/04/04 08:23:18;;;;;;;7.32;3.63;;;;;;;;;;5063238;28;20400;-67
2023/04/04 08:25:46;;;;;;;6.72;3.10;;;;;;;;;;5058404;28;20074;-66
2023/04/04 08:28:12;;;;;;;5.57;2.60;;;;;;;;;;5044127;28;20105;-67
2023/04/04 08:30:38;;;;;;;7.90;3.05;;;;;;;;;;5062077;28;20060;-67
2023/04/04 08:33:05;;;;;;;7.72;2.55;;;;;;;;;;5060726;28;20119;-67
2023/04/04 08:35:31;;;;;;;6.35;3.00;;;;;;;;;;5023406;28;20059;-67
2023/04/04 08:37:57;;;;;;;9.20;3.13;;;;;;;;;;5061164;28;20045;-67
2023/04/04 08:40:23;;;;;;;5.80;2.47;;;;;;;;;;5041853;28;20134;-68
2023/04/04 08:42:50;;;;;;;6.85;2.53;;;;;;;;;;5058074;28;20040;-67
2023/04/04 08:45:18;;;;;;;7.90;2.75;;;;;;;;;;5062166;28;20082;-67
2023/04/04 08:47:45;;;;;;;6.63;2.55;;;;;;;;;;5060932;28;20068;-67
2023/04/04 08:50:12;;;;;;;8.23;2.92;;;;;;;;;;5061948;28;20550;-67
2023/04/04 08:52:38;;;;;;;5.95;2.60;;;;;;;;;;5044358;28;20467;-67
2023/04/04 08:55:05;;;;;;;6.65;2.78;;;;;;;;;;5044820;28;20045;-67
2023/04/04 08:57:32;;;;;;;8.35;2.80;;;;;;;;;;5061331;28;20087;-67
2023/04/04 08:59:58;;;;;;;6.88;2.60;;;;;;;;;;5057259;28;20452;-67
2023/04/04 09:02:34;;;;;;;11.27;3.05;;;;;;;;;;5062921;28;20055;-67
2023/04/04 09:05:01;;;;;;;6.53;2.78;;;;;;;;;;5042479;28;20056;-67
2023/04/04 09:07:28;;;;;;;8.75;2.35;;;;;;;;;;5057374;28;20050;-67
2023/04/04 09:09:54;;;;;;;6.47;2.30;;;;;;;;;;5042277;28;20383;-67
2023/04/04 09:12:22;;;;;;;8.00;2.65;;;;;;;;;;5060744;28;20649;-67
2023/04/04 09:14:50;;;;;;;9.07;2.42;;;;;;;;;;5063995;28;20083;-64
2023/04/04 09:17:17;;;;;;;6.72;2.67;;;;;;;;;;5066801;28;20049;-66
2023/04/04 09:19:44;;;;;;;5.40;2.03;;;;;;;;;;5067509;28;20059;-67
2023/04/04 09:22:10;;;;;;;10.02;2.60;;;;;;;;;;5064304;28;20036;-67
2023/04/04 09:24:38;;;;;;;7.28;2.55;;;;;;;;;;5063007;28;20455;-67
2023/04/04 09:27:05;;;;;;;9.45;2.30;;;;;;;;;;5063862;28;20083;-67
2023/04/04 09:29:33;;;;;;;8.48;3.05;;;;;;;;;;5064512;28;20068;-67
2023/04/04 09:31:59;;;;;;;7.60;2.20;;;;;;;;;;5061765;28;21196;-67
2023/04/04 09:34:28;;;;;;;5.75;2.28;;;;;;;;;;5062507;28;20071;-67
2023/04/04 09:36:54;;;;;;;5.57;2.22;;;;;;;;;;5066538;28;20059;-67
2023/04/04 09:39:22;;;;;;;7.85;2.70;;;;;;;;;;5067354;28;20060;-67
2023/04/04 09:41:49;;;;;;;10.57;2.22;;;;;;;;;;5062783;28;20044;-67
2023/04/04 09:44:16;;;;;;;7.80;2.65;;;;;;;;;;5060787;28;20037;-67
2023/04/04 09:46:42;;;;;;;9.20;2.67;;;;;;;;;;5035897;28;20063;-67
2023/04/04 09:49:10;;;;;;;7.03;2.70;;;;;;;;;;5042872;28;20041;-67
2023/04/04 09:51:37;;;;;;;7.03;3.08;;;;;;;;;;5046712;28;20075;-67
2023/04/04 09:54:05;;;;;;;9.20;3.17;;;;;;;;;;5067017;28;20094;-69
2023/04/04 09:56:33;;;;;;;7.82;3.28;;;;;;;;;;5062658;28;20060;-67
2023/04/04 09:59:01;;;;;;;5.65;2.40;;;;;;;;;;5037693;28;20143;-68
2023/04/04 10:01:28;;;;;;;8.93;3.15;;;;;;;;;;5038941;28;20068;-68
2023/04/04 10:03:54;;;;;;;11.35;3.22;;;;;;;;;;5040306;28;20084;-67
2023/04/04 10:06:22;;;;;;;5.28;2.40;;;;;;;;;;5045857;28;20055;-69
2023/04/04 10:08:49;;;;;;;5.88;2.35;;;;;;;;;;5049843;28;20043;-69
2023/04/04 10:11:27;;;;;;;7.82;2.10;;;;;;;;;;5066968;28;20044;-69
2023/04/04 10:13:53;;;;;;;8.40;3.35;;;;;;;;;;5066700;28;20068;-69
2023/04/04 10:16:20;;;;;;;6.57;2.25;;;;;;;;;;5069355;28;20033;-69
2023/04/04 10:18:47;;;;;;;5.95;2.55;;;;;;;;;;5071306;28;20045;-69
2023/04/04 10:21:14;;;;;;;6.82;2.60;;;;;;;;;;5070770;28;20154;-69
2023/04/04 10:23:41;;;;;;;7.60;2.63;;;;;;;;;;5069029;28;20040;-69
2023/04/04 10:26:07;;;;;;;4.80;2.28;;;;;;;;;;5070878;28;20090;-69
2023/04/04 10:28:34;;;;;;;7.95;3.15;;;;;;;;;;5070955;28;20131;-70
2023/04/04 10:31:06;;;;;;;7.82;3.33;;;;;;;;;;5063997;28;20052;-68
2023/04/04 10:33:39;;;;;;;6.57;2.42;;;;;;;;;;5042783;28;20049;-68
2023/04/04 10:36:07;;;;;;;8.65;2.88;;;;;;;;;;5062996;28;20510;-64
2023/04/04 10:38:38;;;;;;;7.90;2.92;;;;;;;;;;5062213;28;20119;-66
2023/04/04 10:41:06;;;;;;;8.45;2.45;;;;;;;;;;5046398;28;20056;-67
2023/04/04 10:43:34;;;;;;;7.13;2.80;;;;;;;;;;5066478;28;20542;-67
2023/04/04 10:46:06;;;;;;;7.90;2.90;;;;;;;;;;5057690;28;20033;-67
2023/04/04 10:48:33;;;;;;;10.00;3.20;;;;;;;;;;5062380;28;20117;-68
2023/04/04 10:51:00;;;;;;;7.10;2.55;;;;;;;;;;5060855;28;20048;-68
2023/04/04 10:53:26;;;;;;;6.30;2.42;;;;;;;;;;5058580;28;20115;-67
2023/04/04 10:55:53;;;;;;;6.53;2.90;;;;;;;;;;5043709;28;20040;-67
2023/04/04 10:58:21;;;;;;;8.02;3.08;;;;;;;;;;5063018;28;20029;-68
2023/04/04 11:00:54;;;;;;;6.35;3.53;;;;;;;;;;5062137;28;20033;-67
2023/04/04 11:03:21;;;;;;;6.75;3.42;;;;;;;;;;5063296;28;20041;-67
2023/04/04 11:05:49;;;;;;;7.00;2.88;;;;;;;;;;5045022;28;20084;-67
2023/04/04 11:08:18;;;;;;;7.78;3.78;;;;;;;;;;5063952;28;20036;-68
2023/04/04 11:10:47;;;;;;;8.15;3.33;;;;;;;;;;5060043;28;20090;-67
2023/04/04 11:13:21;;;;;;;5.68;2.85;;;;;;;;;;5061305;28;20530;-67
2023/04/04 11:15:58;;;;;;;8.27;3.08;;;;;;;;;;5062593;28;20036;-67
2023/04/04 11:18:31;;;;;;;6.28;2.92;;;;;;;;;;5062757;28;20043;-67
2023/04/04 11:21:01;;;;;;;5.60;3.00;;;;;;;;;;5042257;28;20143;-66
2023/04/04 11:23:27;;;;;;;7.03;2.97;;;;;;;;;;5063508;28;20051;-67
2023/04/04 11:25:54;;;;;;;5.65;2.67;;;;;;;;;;5063885;28;20490;-67
2023/04/04 11:28:42;;;;;;;6.45;3.10;;;;;;;;;;5064401;28;20441;-67
2023/04/04 11:31:16;;;;;;;5.47;2.58;;;;;;;;;;5060493;28;20154;-68
2023/04/04 11:33:55;;;;;;;6.53;3.30;;;;;;;;;;5059117;28;20052;-67
2023/04/04 11:36:36;;;;;;;5.50;3.00;;;;;;;;;;5061950;28;20138;-67
2023/04/04 11:39:05;;;;;;;19.27;3.47;;;;;;;;;;5063173;28;20045;-67
2023/04/04 11:41:47;;;;;;;8.43;3.20;;;;;;;;;;5062956;28;20119;-68
2023/04/04 11:44:14;;;;;;;8.63;3.60;;;;;;;;;;5037817;28;20052;-67
2023/04/04 11:46:41;;;;;;;5.95;2.88;;;;;;;;;;5042773;28;20052;-67
2023/04/04 11:49:07;;;;;;;6.95;3.03;;;;;;;;;;5060897;28;20082;-68
2023/04/04 11:51:34;;;;;;;8.27;3.40;;;;;;;;;;5059804;28;20051;-68
2023/04/04 11:54:00;;;;;;;8.23;3.38;;;;;;;;;;5043605;28;20052;-67
2023/04/04 11:56:26;;;;;;;8.85;3.50;;;;;;;;;;5060479;28;20049;-67
2023/04/04 11:58:53;;;;;;;7.40;3.10;;;;;;;;;;5060376;28;20058;-67
2023/04/04 12:01:19;;;;;;;6.20;3.05;;;;;;;;;;5061386;28;20044;-68
2023/04/04 12:03:46;;;;;;;8.40;3.30;;;;;;;;;;5044181;28;20044;-68
2023/04/04 12:06:12;;;;;;;7.82;3.75;;;;;;;;;;5063435;28;20052;-68
2023/04/04 12:08:39;;;;;;;6.70;3.25;;;;;;;;;;5062604;28;20640;-68
2023/04/04 12:11:09;;;;;;;8.00;3.80;;;;;;;;;;5061794;28;20044;-67
2023/04/04 12:13:42;;;;;;;7.10;3.55;;;;;;;;;;5061125;28;20446;-67
2023/04/04 12:16:08;;;;;;;10.23;3.70;;;;;;;;;;5043092;28;20052;-67
2023/04/04 12:18:34;;;;;;;7.82;3.92;;;;;;;;;;5060397;28;20381;-67
2023/04/04 12:21:01;;;;;;;10.27;3.28;;;;;;;;;;5062065;28;20044;-67
2023/04/04 12:23:27;;;;;;;7.63;3.33;;;;;;;;;;5060123;28;20032;-67
2023/04/04 12:25:54;;;;;;;7.63;3.08;;;;;;;;;;5057810;28;20056;-68
2023/04/04 12:28:21;;;;;;;6.45;3.40;;;;;;;;;;5047498;28;20041;-68
2023/04/04 12:30:48;;;;;;;8.00;3.50;;;;;;;;;;5059400;28;20037;-68
2023/04/04 12:33:14;;;;;;;6.50;2.83;;;;;;;;;;5059937;28;20036;-68
2023/04/04 12:35:41;;;;;;;6.65;3.20;;;;;;;;;;5058132;28;20501;-68
2023/04/04 12:38:09;;;;;;;7.25;3.47;;;;;;;;;;5058773;28;20037;-68
2023/04/04 12:40:36;;;;;;;6.47;3.22;;;;;;;;;;5061729;28;20135;-68
2023/04/04 12:43:04;;;;;;;5.13;3.13;;;;;;;;;;5041227;28;20053;-68
2023/04/04 12:45:31;;;;;;;6.93;3.15;;;;;;;;;;5057585;28;20033;-68
2023/04/04 12:47:57;;;;;;;7.00;2.80;;;;;;;;;;5060416;28;20055;-68
2023/04/04 12:50:26;;;;;;;7.72;3.00;;;;;;;;;;5061513;28;20131;-68
2023/04/04 12:52:53;;;;;;;6.68;3.30;;;;;;;;;;5061663;28;20044;-68
2023/04/04 12:55:22;;;;;;;5.78;2.67;;;;;;;;;;5060496;28;20044;-68
2023/04/04 12:57:48;;;;;;;6.68;3.28;;;;;;;;;;5063151;28;20051;-66
2023/04/04 13:00:15;;;;;;;5.43;2.95;;;;;;;;;;5064219;28;20101;-66
2023/04/04 13:02:45;;;;;;;8.20;3.05;;;;;;;;;;5062065;28;20051;-67
2023/04/04 13:05:11;;;;;;;6.20;3.00;;;;;;;;;;5058602;28;20439;-67
2023/04/04 13:07:42;;;;;;;7.45;2.70;;;;;;;;;;5061406;28;20036;-68
2023/04/04 13:10:09;;;;;;;4.95;2.58;;;;;;;;;;5035655;28;20051;-65
2023/04/04 13:12:52;;;;;;;6.82;3.00;;;;;;;;;;5056267;28;20052;-66
2023/04/04 13:15:18;;;;;;;7.57;3.22;;;;;;;;;;5062040;28;20048;-69
2023/04/04 13:17:45;;;;;;;9.40;3.38;;;;;;;;;;5060533;28;20053;-66
2023/04/04 13:20:12;;;;;;;8.77;3.53;;;;;;;;;;5059951;28;20137;-66
2023/04/04 13:22:40;;;;;;;12.05;2.97;;;;;;;;;;5059745;28;20052;-66
2023/04/04 13:25:07;;;;;;;7.50;2.97;;;;;;;;;;5059588;28;20202;-65
2023/04/04 13:27:33;;;;;;;9.35;3.08;;;;;;;;;;5058162;28;20052;-65
2023/04/04 13:29:59;;;;;;;7.13;2.72;;;;;;;;;;5048124;28;20540;-65
2023/04/04 13:32:25;;;;;;;5.57;2.65;;;;;;;;;;5052036;28;20492;-65
2023/04/04 13:34:52;;;;;;;6.20;2.80;;;;;;;;;;5031666;28;20067;-65
2023/04/04 13:37:19;;;;;;;6.35;2.88;;;;;;;;;;5035032;28;20049;-65
2023/04/04 13:39:45;;;;;;;7.20;2.83;;;;;;;;;;5053819;28;20510;-65
2023/04/04 13:42:12;;;;;;;6.82;2.80;;;;;;;;;;5051101;28;20039;-65
2023/04/04 13:44:38;;;;;;;7.15;3.33;;;;;;;;;;5054503;28;20063;-65
2023/04/04 13:47:04;;;;;;;5.63;2.53;;;;;;;;;;5039633;28;20090;-65
2023/04/04 13:49:30;;;;;;;6.28;2.85;;;;;;;;;;5034674;28;20055;-65
2023/04/04 13:51:57;;;;;;;6.85;3.13;;;;;;;;;;5054586;28;20032;-64
2023/04/04 13:54:23;;;;;;;9.23;3.00;;;;;;;;;;5052186;28;20154;-65
2023/04/04 13:56:49;;;;;;;6.63;3.17;;;;;;;;;;5033039;28;20040;-65
2023/04/04 13:59:15;;;;;;;7.05;3.65;;;;;;;;;;5032782;28;20037;-64
2023/04/04 14:01:42;;;;;;;8.93;3.17;;;;;;;;;;5055515;28;20131;-65
2023/04/04 14:04:08;;;;;;;8.80;3.33;;;;;;;;;;5061510;28;20115;-65
2023/04/04 14:06:34;;;;;;;6.63;3.03;;;;;;;;;;5034699;28;20128;-65
2023/04/04 14:09:00;;;;;;;8.73;2.85;;;;;;;;;;5035763;28;20170;-65
2023/04/04 14:11:29;;;;;;;9.02;3.03;;;;;;;;;;5040302;28;20057;-65
2023/04/04 14:13:56;;;;;;;13.13;2.88;;;;;;;;;;5058469;28;20037;-66
2023/04/04 14:16:22;;;;;;;8.00;2.90;;;;;;;;;;5057409;28;20056;-65
2023/04/04 14:18:49;;;;;;;8.60;3.60;;;;;;;;;;5051556;28;20041;-65
2023/04/04 14:21:15;;;;;;;8.00;3.38;;;;;;;;;;5030268;28;20063;-66
2023/04/04 14:23:41;;;;;;;13.85;3.53;;;;;;;;;;5051268;28;20199;-65
2023/04/04 14:26:07;;;;;;;12.05;3.63;;;;;;;;;;5039039;28;20068;-65
2023/04/04 14:28:34;;;;;;;14.63;4.00;;;;;;;;;;5051166;28;20045;-65
2023/04/04 14:31:00;;;;;;;13.32;3.08;;;;;;;;;;5057471;28;20041;-65
2023/04/04 14:33:26;;;;;;;9.27;3.70;;;;;;;;;;5056035;28;20036;-66
2023/04/04 14:35:53;;;;;;;7.47;3.00;;;;;;;;;;5056089;28;20048;-64
2023/04/04 14:38:19;;;;;;;8.10;3.47;;;;;;;;;;5052474;28;20040;-65